sensor_id;sensor_type;location;lat;lon;timestamp;pressure;altitude;pressure_sealevel;temperature;humidity
42247;BME280;27913;42.722;23.268;2023-04-01T00:00:18;94161.19;;;10.86;65.63
42247;BME280;27913;42.722;23.268;2023-04-01T00:05:20;93926.09;;;9.04;66.82
42247;BME280;27913;42.722;23.268;2023-04-01T00:07:45;93991.63;;;9.38;67.10
42247;BME280;27913;42.722;23.268;2023-04-01T00:10:12;93902.09;;;8.66;67.13
42247;BME280;27913;42.722;23.268;2023-04-01T00:12:38;94065.25;;;9.70;67.16
42247;BME280;27913;42.722;23.268;2023-04-01T00:15:08;94169.19;;;10.46;67.07
42247;BME280;27913;42.722;23.268;2023-04-01T00:17:34;94023.09;;;9.58;67.25
42247;BME280;27913;42.722;23.268;2023-04-01T00:20:00;94162.53;;;10.50;66.87
42247;BME280;27913;42.722;23.268;2023-04-01T00:22:25;94158.88;;;10.51;67.05
42247;BME280;27913;42.722;23.268;2023-04-01T00:24:51;94160.50;;;10.52;66.89
42247;BME280;27913;42.722;23.268;2023-04-01T00:27:17;93947.88;;;9.11;66.67
42247;BME280;27913;42.722;23.268;2023-04-01T00:29:43;94155.41;;;10.44;66.97
42247;BME280;27913;42.722;23.268;2023-04-01T00:32:10;93928.69;;;9.11;66.83
42247;BME280;27913;42.722;23.268;2023-04-01T00:34:35;94160.50;;;10.45;67.26
42247;BME280;27913;42.722;23.268;2023-04-01T00:37:02;94149.59;;;10.48;67.41
42247;BME280;27913;42.722;23.268;2023-04-01T00:39:31;94126.97;;;10.34;67.75
42247;BME280;27913;42.722;23.268;2023-04-01T00:41:58;93927.28;;;9.22;67.58
42247;BME280;27913;42.722;23.268;2023-04-01T00:44:26;94123.88;;;10.57;67.55
42247;BME280;27913;42.722;23.268;2023-04-01T00:46:52;94128.69;;;10.67;67.10
42247;BME280;27913;42.722;23.268;2023-04-01T00:49:19;93865.53;;;9.12;67.06
42247;BME280;27913;42.722;23.268;2023-04-01T00:51:47;94120.16;;;10.72;66.55
42247;BME280;27913;42.722;23.268;2023-04-01T00:54:14;94051.75;;;10.39;66.51
42247;BME280;27913;42.722;23.268;2023-04-01T00:59:32;93977.06;;;10.15;66.42
42247;BME280;27913;42.722;23.268;2023-04-01T01:02:03;93991.13;;;10.34;65.95
42247;BME280;27913;42.722;23.268;2023-04-01T01:04:33;94098.78;;;11.01;66.03
42247;BME280;27913;42.722;23.268;2023-04-01T01:10:18;94073.06;;;11.03;66.20
42247;BME280;27913;42.722;23.268;2023-04-01T01:16:06;94078.75;;;10.99;66.19
42247;BME280;27913;42.722;23.268;2023-04-01T01:18:42;94014.81;;;10.67;65.71
42247;BME280;27913;42.722;23.268;2023-04-01T01:29:40;93870.44;;;10.00;65.99
42247;BME280;27913;42.722;23.268;2023-04-01T01:35:27;94056.25;;;11.04;65.98
42247;BME280;27913;42.722;23.268;2023-04-01T01:38:23;93918.28;;;10.09;66.33
42247;BME280;27913;42.722;23.268;2023-04-01T01:40:50;94071.50;;;10.95;66.70
42247;BME280;27913;42.722;23.268;2023-04-01T01:43:23;93764.09;;;9.06;66.71
42247;BME280;27913;42.722;23.268;2023-04-01T01:45:54;94066.22;;;11.02;66.79
42247;BME280;27913;42.722;23.268;2023-04-01T01:48:21;93968.00;;;10.50;66.36
42247;BME280;27913;42.722;23.268;2023-04-01T01:50:48;93924.59;;;10.34;66.41
42247;BME280;27913;42.722;23.268;2023-04-01T01:53:14;94006.31;;;10.71;66.59
42247;BME280;27913;42.722;23.268;2023-04-01T01:55:43;94003.06;;;10.69;66.88
42247;BME280;27913;42.722;23.268;2023-04-01T02:00:43;94002.34;;;10.55;67.86
42247;BME280;27913;42.722;23.268;2023-04-01T02:03:12;94061.81;;;10.89;68.16
42247;BME280;27913;42.722;23.268;2023-04-01T02:05:39;94051.69;;;10.92;67.58
42247;BME280;27913;42.722;23.268;2023-04-01T02:08:13;93939.81;;;10.25;67.63
42247;BME280;27913;42.722;23.268;2023-04-01T02:10:45;93926.59;;;10.38;67.94
42247;BME280;27913;42.722;23.268;2023-04-01T02:16:06;94020.16;;;10.85;67.65
42247;BME280;27913;42.722;23.268;2023-04-01T02:18:35;94034.63;;;11.02;67.31
42247;BME280;27913;42.722;23.268;2023-04-01T02:21:04;94036.47;;;11.01;67.29
42247;BME280;27913;42.722;23.268;2023-04-01T02:23:33;94021.28;;;11.03;67.53
42247;BME280;27913;42.722;23.268;2023-04-01T02:26:01;93788.47;;;9.52;67.37
42247;BME280;27913;42.722;23.268;2023-04-01T02:28:28;93908.09;;;10.20;67.82
42247;BME280;27913;42.722;23.268;2023-04-01T02:30:55;93976.72;;;10.50;68.24
42247;BME280;27913;42.722;23.268;2023-04-01T02:33:23;94040.00;;;10.81;68.57
42247;BME280;27913;42.722;23.268;2023-04-01T02:35:49;94043.72;;;10.73;69.00
42247;BME280;27913;42.722;23.268;2023-04-01T02:38:15;93792.50;;;9.16;68.91
42247;BME280;27913;42.722;23.268;2023-04-01T02:40:49;93966.72;;;10.20;69.17
42247;BME280;27913;42.722;23.268;2023-04-01T02:43:16;93940.34;;;10.01;69.12
42247;BME280;27913;42.722;23.268;2023-04-01T02:45:42;94056.88;;;10.67;68.89
42247;BME280;27913;42.722;23.268;2023-04-01T02:48:08;94042.41;;;10.44;70.12
42247;BME280;27913;42.722;23.268;2023-04-01T02:50:34;94064.69;;;10.34;70.69
42247;BME280;27913;42.722;23.268;2023-04-01T02:53:01;94061.00;;;10.42;70.00
42247;BME280;27913;42.722;23.268;2023-04-01T02:55:29;94068.75;;;10.30;70.33
42247;BME280;27913;42.722;23.268;2023-04-01T02:57:55;94048.38;;;10.19;71.56
42247;BME280;27913;42.722;23.268;2023-04-01T03:00:21;94065.97;;;10.18;71.65
42247;BME280;27913;42.722;23.268;2023-04-01T03:02:46;94073.47;;;10.08;72.10
42247;BME280;27913;42.722;23.268;2023-04-01T03:05:12;94077.69;;;10.09;72.14
42247;BME280;27913;42.722;23.268;2023-04-01T03:07:38;94011.78;;;9.51;72.72
42247;BME280;27913;42.722;23.268;2023-04-01T03:10:05;93908.75;;;8.76;72.58
42247;BME280;27913;42.722;23.268;2023-04-01T03:12:31;94084.03;;;9.74;73.63
42247;BME280;27913;42.722;23.268;2023-04-01T03:14:56;94074.75;;;9.78;73.63
42247;BME280;27913;42.722;23.268;2023-04-01T03:17:22;94017.06;;;9.30;73.81
42247;BME280;27913;42.722;23.268;2023-04-01T03:19:47;93916.03;;;8.60;74.60
42247;BME280;27913;42.722;23.268;2023-04-01T03:22:12;94057.00;;;9.53;74.77
42247;BME280;27913;42.722;23.268;2023-04-01T03:24:38;94087.91;;;9.71;74.20
42247;BME280;27913;42.722;23.268;2023-04-01T03:27:03;93887.38;;;8.52;74.46
42247;BME280;27913;42.722;23.268;2023-04-01T03:29:29;94084.84;;;9.81;71.71
42247;BME280;27913;42.722;23.268;2023-04-01T03:31:55;93814.81;;;8.32;73.19
42247;BME280;27913;42.722;23.268;2023-04-01T03:34:23;94077.53;;;9.97;73.59
42247;BME280;27913;42.722;23.268;2023-04-01T03:36:49;94042.59;;;9.89;73.79
42247;BME280;27913;42.722;23.268;2023-04-01T03:39:14;94052.09;;;9.97;75.19
42247;BME280;27913;42.722;23.268;2023-04-01T03:41:44;93759.59;;;8.27;73.96
42247;BME280;27913;42.722;23.268;2023-04-01T03:44:10;93907.25;;;9.41;74.85
42247;BME280;27913;42.722;23.268;2023-04-01T03:46:35;94020.13;;;10.07;74.64
42247;BME280;27913;42.722;23.268;2023-04-01T03:49:01;94004.75;;;10.11;74.21
42247;BME280;27913;42.722;23.268;2023-04-01T03:51:26;93988.34;;;10.15;74.79
42247;BME280;27913;42.722;23.268;2023-04-01T03:53:52;93929.13;;;9.74;75.47
42247;BME280;27913;42.722;23.268;2023-04-01T03:56:17;93979.66;;;10.22;76.06
42247;BME280;27913;42.722;23.268;2023-04-01T03:58:43;93977.53;;;9.98;78.63
42247;BME280;27913;42.722;23.268;2023-04-01T04:01:20;93970.06;;;9.95;79.77
42247;BME280;27913;42.722;23.268;2023-04-01T04:03:46;93969.03;;;9.96;79.57
42247;BME280;27913;42.722;23.268;2023-04-01T04:06:13;93936.34;;;9.92;78.84
42247;BME280;27913;42.722;23.268;2023-04-01T04:08:39;93962.50;;;10.12;77.85
42247;BME280;27913;42.722;23.268;2023-04-01T04:11:04;93956.81;;;10.15;77.25
42247;BME280;27913;42.722;23.268;2023-04-01T04:13:30;93957.69;;;10.09;78.22
42247;BME280;27913;42.722;23.268;2023-04-01T04:15:55;93962.94;;;10.09;78.43
42247;BME280;27913;42.722;23.268;2023-04-01T04:18:21;93738.56;;;8.81;78.14
42247;BME280;27913;42.722;23.268;2023-04-01T04:20:47;93934.25;;;10.08;77.03
42247;BME280;27913;42.722;23.268;2023-04-01T04:23:17;93715.78;;;8.81;75.59
42247;BME280;27913;42.722;23.268;2023-04-01T04:26:00;93925.28;;;10.22;75.56
42247;BME280;27913;42.722;23.268;2023-04-01T04:28:27;93928.78;;;10.09;75.95
42247;BME280;27913;42.722;23.268;2023-04-01T04:30:53;93946.34;;;10.09;75.58
42247;BME280;27913;42.722;23.268;2023-04-01T04:33:19;93925.28;;;10.15;75.06
42247;BME280;27913;42.722;23.268;2023-04-01T04:35:45;93821.56;;;9.60;74.10
42247;BME280;27913;42.722;23.268;2023-04-01T04:38:10;93913.38;;;10.20;75.01
42247;BME280;27913;42.722;23.268;2023-04-01T04:40:37;93922.66;;;10.22;75.81
42247;BME280;27913;42.722;23.268;2023-04-01T04:43:03;93912.97;;;10.16;75.66
42247;BME280;27913;42.722;23.268;2023-04-01T04:45:29;93907.28;;;10.19;74.16
42247;BME280;27913;42.722;23.268;2023-04-01T04:47:56;93764.91;;;9.46;73.25
42247;BME280;27913;42.722;23.268;2023-04-01T04:50:22;93900.13;;;10.33;73.62
42247;BME280;27913;42.722;23.268;2023-04-01T04:52:48;93908.91;;;10.20;73.87
42247;BME280;27913;42.722;23.268;2023-04-01T04:55:13;93906.91;;;10.22;73.54
42247;BME280;27913;42.722;23.268;2023-04-01T04:57:40;93888.66;;;10.27;73.82
42247;BME280;27913;42.722;23.268;2023-04-01T05:00:06;93833.50;;;9.95;73.23
42247;BME280;27913;42.722;23.268;2023-04-01T05:02:33;93765.28;;;9.49;72.16
42247;BME280;27913;42.722;23.268;2023-04-01T05:04:59;93892.00;;;10.48;71.82
42247;BME280;27913;42.722;23.268;2023-04-01T05:07:24;93779.16;;;9.96;72.35
42247;BME280;27913;42.722;23.268;2023-04-01T05:09:50;93880.59;;;10.55;71.80
42247;BME280;27913;42.722;23.268;2023-04-01T05:12:15;93834.50;;;10.26;69.83
42247;BME280;27913;42.722;23.268;2023-04-01T05:14:41;93863.09;;;10.48;70.25
42247;BME280;27913;42.722;23.268;2023-04-01T05:17:10;93853.34;;;10.49;70.75
42247;BME280;27913;42.722;23.268;2023-04-01T05:19:36;93850.69;;;10.56;70.34
42247;BME280;27913;42.722;23.268;2023-04-01T05:22:02;93856.72;;;10.56;69.71
42247;BME280;27913;42.722;23.268;2023-04-01T05:24:28;93674.19;;;9.57;69.22
42247;BME280;27913;42.722;23.268;2023-04-01T05:26:53;93588.22;;;9.01;68.84
42247;BME280;27913;42.722;23.268;2023-04-01T05:29:19;93864.09;;;10.73;69.07
42247;BME280;27913;42.722;23.268;2023-04-01T05:31:44;93791.81;;;10.31;68.20
42247;BME280;27913;42.722;23.268;2023-04-01T05:34:10;93862.63;;;10.77;68.25
42247;BME280;27913;42.722;23.268;2023-04-01T05:36:35;93858.13;;;10.84;68.13
42247;BME280;27913;42.722;23.268;2023-04-01T05:39:01;93864.94;;;10.92;68.62
42247;BME280;27913;42.722;23.268;2023-04-01T05:41:27;93580.13;;;9.28;67.95
42247;BME280;27913;42.722;23.268;2023-04-01T05:43:53;93857.56;;;11.01;68.24
42247;BME280;27913;42.722;23.268;2023-04-01T05:46:18;93854.41;;;11.11;67.99
42247;BME280;27913;42.722;23.268;2023-04-01T05:48:44;93841.03;;;11.13;67.27
42247;BME280;27913;42.722;23.268;2023-04-01T05:51:15;93824.97;;;11.21;67.29
42247;BME280;27913;42.722;23.268;2023-04-01T05:53:42;93770.59;;;10.96;67.01
42247;BME280;27913;42.722;23.268;2023-04-01T05:56:08;93838.84;;;11.47;66.58
42247;BME280;27913;42.722;23.268;2023-04-01T05:58:35;93594.66;;;10.00;65.78
42247;BME280;27913;42.722;23.268;2023-04-01T06:01:06;93833.69;;;11.71;65.46
42247;BME280;27913;42.722;23.268;2023-04-01T06:03:32;93728.81;;;11.06;65.16
42247;BME280;27913;42.722;23.268;2023-04-01T06:05:58;93812.91;;;11.51;65.27
42247;BME280;27913;42.722;23.268;2023-04-01T06:08:24;93847.75;;;11.95;63.74
42247;BME280;27913;42.722;23.268;2023-04-01T06:19:46;93655.31;;;11.23;61.67
42247;BME280;27913;42.722;23.268;2023-04-01T06:22:38;93824.06;;;12.38;60.93
42247;BME280;27913;42.722;23.268;2023-04-01T06:25:29;93823.72;;;12.47;59.99
42247;BME280;27913;42.722;23.268;2023-04-01T06:45:47;93719.13;;;12.04;58.15
42247;BME280;27913;42.722;23.268;2023-04-01T06:53:54;93781.75;;;12.69;56.69
42247;BME280;27913;42.722;23.268;2023-04-01T06:56:25;93584.16;;;11.42;55.91
42247;BME280;27913;42.722;23.268;2023-04-01T07:01:31;93605.69;;;11.39;56.58
42247;BME280;27913;42.722;23.268;2023-04-01T07:04:09;93769.72;;;12.25;57.72
42247;BME280;27913;42.722;23.268;2023-04-01T07:06:44;93685.41;;;11.82;57.37
42247;BME280;27913;42.722;23.268;2023-04-01T07:09:19;93757.81;;;12.23;59.15
42247;BME280;27913;42.722;23.268;2023-04-01T07:11:46;93789.00;;;12.50;58.37
42247;BME280;27913;42.722;23.268;2023-04-01T07:14:26;93516.66;;;10.69;58.66
42247;BME280;27913;42.722;23.268;2023-04-01T07:17:17;93778.22;;;12.39;58.71
42247;BME280;27913;42.722;23.268;2023-04-01T07:19:51;93739.00;;;12.19;59.01
42247;BME280;27913;42.722;23.268;2023-04-01T07:22:41;93746.44;;;12.10;59.31
42247;BME280;27913;42.722;23.268;2023-04-01T07:25:29;93719.38;;;12.03;59.31
42247;BME280;27913;42.722;23.268;2023-04-01T07:28:15;93768.81;;;12.43;59.48
42247;BME280;27913;42.722;23.268;2023-04-01T07:36:26;93795.72;;;12.34;61.27
42247;BME280;27913;42.722;23.268;2023-04-01T07:47:54;93721.47;;;12.13;62.37
42247;BME280;27913;42.722;23.268;2023-04-01T07:50:34;93730.63;;;12.10;62.56
42247;BME280;27913;42.722;23.268;2023-04-01T07:56:05;93777.75;;;12.42;62.75
42247;BME280;27913;42.722;23.268;2023-04-01T07:58:59;93728.81;;;12.23;62.97
42247;BME280;27913;42.722;23.268;2023-04-01T08:04:11;93697.34;;;11.97;62.77
42247;BME280;27913;42.722;23.268;2023-04-01T08:07:07;93740.84;;;12.42;62.49
42247;BME280;27913;42.722;23.268;2023-04-01T08:20:50;93734.28;;;12.69;61.88
42247;BME280;27913;42.722;23.268;2023-04-01T08:23:19;93727.63;;;12.78;61.92
42247;BME280;27913;42.722;23.268;2023-04-01T08:26:36;93676.41;;;12.50;62.60
42247;BME280;27913;42.722;23.268;2023-04-01T08:29:01;93670.66;;;12.53;62.94
42247;BME280;27913;42.722;23.268;2023-04-01T08:34:28;93716.53;;;13.05;61.88
42247;BME280;27913;42.722;23.268;2023-04-01T08:37:05;93643.09;;;12.85;62.04
42247;BME280;27913;42.722;23.268;2023-04-01T08:39:37;93438.22;;;11.62;62.10
42247;BME280;27913;42.722;23.268;2023-04-01T08:43:12;93440.38;;;11.89;61.66
42247;BME280;27913;42.722;23.268;2023-04-01T08:45:27;93600.22;;;13.07;61.55
42247;BME280;27913;42.722;23.268;2023-04-01T08:55:56;93599.41;;;13.70;56.36
42247;BME280;27913;42.722;23.268;2023-04-01T09:01:37;93644.63;;;14.48;54.36
42247;BME280;27913;42.722;23.268;2023-04-01T09:10:04;93433.53;;;13.33;51.74
42247;BME280;27913;42.722;23.268;2023-04-01T09:13:11;93593.47;;;14.37;51.87
42247;BME280;27913;42.722;23.268;2023-04-01T09:15:54;93466.16;;;13.61;51.32
42247;BME280;27913;42.722;23.268;2023-04-01T09:18:48;93590.31;;;14.40;51.85
42247;BME280;27913;42.722;23.268;2023-04-01T09:33:09;93561.28;;;14.45;48.56
42247;BME280;27913;42.722;23.268;2023-04-01T09:52:16;93576.28;;;15.12;49.68
42247;BME280;27913;42.722;23.268;2023-04-01T09:54:31;93569.31;;;15.28;48.99
42247;BME280;27913;42.722;23.268;2023-04-01T10:08:26;93564.88;;;15.39;46.91
42247;BME280;27913;42.722;23.268;2023-04-01T10:16:55;93531.88;;;15.52;42.19
42247;BME280;27913;42.722;23.268;2023-04-01T10:22:41;93356.06;;;14.49;40.69
42247;BME280;27913;42.722;23.268;2023-04-01T10:25:34;93507.31;;;15.67;40.35
42247;BME280;27913;42.722;23.268;2023-04-01T10:28:24;93502.28;;;15.66;40.08
42247;BME280;27913;42.722;23.268;2023-04-01T10:36:46;93429.59;;;15.46;42.54
42247;BME280;27913;42.722;23.268;2023-04-01T11:09:17;93452.34;;;15.47;45.55
42247;BME280;27913;42.722;23.268;2023-04-01T11:12:51;93470.16;;;15.57;45.59
42247;BME280;27913;42.722;23.268;2023-04-01T11:15:37;93446.38;;;15.24;46.37
42247;BME280;27913;42.722;23.268;2023-04-01T11:23:34;93433.44;;;14.90;44.59
42247;BME280;27913;42.722;23.268;2023-04-01T11:31:47;93541.38;;;14.88;48.40
42247;BME280;27913;42.722;23.268;2023-04-01T11:39:44;93628.28;;;14.11;66.10
42247;BME280;27913;42.722;23.268;2023-04-01T11:42:20;93498.19;;;11.96;72.30
42247;BME280;27913;42.722;23.268;2023-04-01T11:45:01;93718.81;;;12.13;86.83
42247;BME280;27913;42.722;23.268;2023-04-01T11:47:55;93583.13;;;10.58;94.06
42247;BME280;27913;42.722;23.268;2023-04-01T11:53:14;93696.09;;;10.83;95.55
42247;BME280;27913;42.722;23.268;2023-04-01T12:09:16;93681.50;;;10.24;100.00
42247;BME280;27913;42.722;23.268;2023-04-01T12:17:27;93724.81;;;10.41;100.00
42247;BME280;27913;42.722;23.268;2023-04-01T12:20:16;93743.06;;;10.35;100.00
42247;BME280;27913;42.722;23.268;2023-04-01T12:26:10;93660.75;;;9.97;100.00
42247;BME280;27913;42.722;23.268;2023-04-01T12:34:53;93747.59;;;10.02;100.00
42247;BME280;27913;42.722;23.268;2023-04-01T12:37:44;93664.31;;;9.59;100.00
42247;BME280;27913;42.722;23.268;2023-04-01T12:43:13;93456.97;;;8.31;100.00
42247;BME280;27913;42.722;23.268;2023-04-01T12:45:58;93581.84;;;9.15;100.00
42247;BME280;27913;42.722;23.268;2023-04-01T12:51:54;93705.41;;;9.97;100.00
42247;BME280;27913;42.722;23.268;2023-04-01T12:54:45;93495.75;;;8.87;100.00
42247;BME280;27913;42.722;23.268;2023-04-01T13:01:01;93681.97;;;10.40;100.00
42247;BME280;27913;42.722;23.268;2023-04-01T13:06:26;93678.13;;;10.61;100.00
42247;BME280;27913;42.722;23.268;2023-04-01T13:14:20;93639.94;;;10.40;100.00
42247;BME280;27913;42.722;23.268;2023-04-01T13:17:20;93667.88;;;10.72;100.00
42247;BME280;27913;42.722;23.268;2023-04-01T13:19:55;93600.56;;;10.33;100.00
42247;BME280;27913;42.722;23.268;2023-04-01T13:22:45;93576.50;;;10.36;100.00
42247;BME280;27913;42.722;23.268;2023-04-01T13:31:01;93571.44;;;10.84;99.33
42247;BME280;27913;42.722;23.268;2023-04-01T13:33:42;93564.78;;;11.13;100.00
42247;BME280;27913;42.722;23.268;2023-04-01T13:39:08;93619.13;;;12.22;93.60
42247;BME280;27913;42.722;23.268;2023-04-01T13:44:38;93541.31;;;12.60;95.66
42247;BME280;27913;42.722;23.268;2023-04-01T13:47:17;93480.41;;;12.44;88.35
42247;BME280;27913;42.722;23.268;2023-04-01T13:50:08;93509.53;;;13.13;85.50
42247;BME280;27913;42.722;23.268;2023-04-01T14:01:23;93428.31;;;13.38;79.17
42247;BME280;27913;42.722;23.268;2023-04-01T14:04:17;93384.16;;;13.33;76.38
42247;BME280;27913;42.722;23.268;2023-04-01T14:07:31;93418.91;;;13.87;73.48
42247;BME280;27913;42.722;23.268;2023-04-01T14:10:23;93554.63;;;14.88;69.09
42247;BME280;27913;42.722;23.268;2023-04-01T14:13:17;93558.19;;;14.99;67.26
42247;BME280;27913;42.722;23.268;2023-04-01T14:18:39;93496.22;;;14.72;69.72
42247;BME280;27913;42.722;23.268;2023-04-01T14:36:18;93462.50;;;14.07;78.48
42247;BME280;27913;42.722;23.268;2023-04-01T14:39:00;93461.88;;;13.99;77.54
42247;BME280;27913;42.722;23.268;2023-04-01T14:47:42;93432.88;;;14.32;75.15
42247;BME280;27913;42.722;23.268;2023-04-01T14:50:12;93302.97;;;13.91;73.90
42247;BME280;27913;42.722;23.268;2023-04-01T14:52:41;93380.91;;;14.43;73.01
42247;BME280;27913;42.722;23.268;2023-04-01T14:55:31;93361.44;;;14.27;73.25
42247;BME280;27913;42.722;23.268;2023-04-01T14:58:10;93471.81;;;14.65;74.17
42247;BME280;27913;42.722;23.268;2023-04-01T15:03:39;93462.19;;;13.63;77.11
42247;BME280;27913;42.722;23.268;2023-04-01T15:06:22;93471.13;;;13.40;78.70
42247;BME280;27913;42.722;23.268;2023-04-01T15:08:57;93494.31;;;13.38;78.80
42247;BME280;27913;42.722;23.268;2023-04-01T15:17:30;93498.97;;;12.67;79.64
42247;BME280;27913;42.722;23.268;2023-04-01T15:20:29;93463.97;;;12.54;80.85
42247;BME280;27913;42.722;23.268;2023-04-01T15:26:46;93530.31;;;12.63;81.60
42247;BME280;27913;42.722;23.268;2023-04-01T15:37:37;93538.22;;;12.92;82.28
42247;BME280;27913;42.722;23.268;2023-04-01T15:40:24;93414.53;;;12.03;82.87
42247;BME280;27913;42.722;23.268;2023-04-01T15:53:55;93776.50;;;9.31;87.97
42247;BME280;27913;42.722;23.268;2023-04-01T15:59:23;93692.34;;;8.07;100.00
42247;BME280;27913;42.722;23.268;2023-04-01T16:02:07;93728.41;;;7.71;100.00
42247;BME280;27913;42.722;23.268;2023-04-01T16:04:58;93732.41;;;7.46;100.00
42247;BME280;27913;42.722;23.268;2023-04-01T16:10:28;93637.63;;;6.48;100.00
42247;BME280;27913;42.722;23.268;2023-04-01T16:16:07;93785.03;;;7.16;100.00
42247;BME280;27913;42.722;23.268;2023-04-01T16:18:59;93758.84;;;7.03;100.00
42247;BME280;27913;42.722;23.268;2023-04-01T16:21:45;93766.34;;;7.26;100.00
42247;BME280;27913;42.722;23.268;2023-04-01T16:24:34;93771.41;;;7.41;100.00
42247;BME280;27913;42.722;23.268;2023-04-01T16:28:08;93739.94;;;7.07;100.00
42247;BME280;27913;42.722;23.268;2023-04-01T16:38:03;93771.63;;;7.46;100.00
42247;BME280;27913;42.722;23.268;2023-04-01T16:43:48;93674.97;;;6.48;100.00
42247;BME280;27913;42.722;23.268;2023-04-01T16:46:35;93648.53;;;6.23;100.00
42247;BME280;27913;42.722;23.268;2023-04-01T17:02:25;93766.88;;;6.59;100.00
42247;BME280;27913;42.722;23.268;2023-04-01T17:07:43;93844.75;;;7.19;100.00
42247;BME280;27913;42.722;23.268;2023-04-01T17:19:07;93772.25;;;6.22;100.00
42247;BME280;27913;42.722;23.268;2023-04-01T17:28:04;93938.91;;;7.55;100.00
42247;BME280;27913;42.722;23.268;2023-04-01T17:33:33;93871.91;;;7.18;100.00
42247;BME280;27913;42.722;23.268;2023-04-01T17:44:40;93938.69;;;7.56;100.00
42247;BME280;27913;42.722;23.268;2023-04-01T17:52:38;93866.06;;;6.81;100.00
42247;BME280;27913;42.722;23.268;2023-04-01T17:55:38;93881.00;;;6.87;99.95
42247;BME280;27913;42.722;23.268;2023-04-01T18:09:15;93894.25;;;6.57;99.69
42247;BME280;27913;42.722;23.268;2023-04-01T18:23:00;93890.38;;;6.52;100.00
42247;BME280;27913;42.722;23.268;2023-04-01T18:25:37;93954.13;;;7.09;100.00
42247;BME280;27913;42.722;23.268;2023-04-01T18:28:14;93936.63;;;7.09;100.00
42247;BME280;27913;42.722;23.268;2023-04-01T18:30:49;93928.41;;;6.84;98.96
42247;BME280;27913;42.722;23.268;2023-04-01T18:33:24;93942.19;;;6.99;98.37
42247;BME280;27913;42.722;23.268;2023-04-01T18:36:08;93863.50;;;6.30;98.55
42247;BME280;27913;42.722;23.268;2023-04-01T18:38:37;93867.53;;;6.33;98.42
42247;BME280;27913;42.722;23.268;2023-04-01T18:43:53;93964.72;;;7.00;98.53
42247;BME280;27913;42.722;23.268;2023-04-01T18:46:55;94019.97;;;7.48;97.64
42247;BME280;27913;42.722;23.268;2023-04-01T18:49:33;94030.63;;;7.46;98.67
42247;BME280;27913;42.722;23.268;2023-04-01T18:54:46;93909.63;;;6.73;98.67
42247;BME280;27913;42.722;23.268;2023-04-01T18:57:16;93908.91;;;6.80;98.39
42247;BME280;27913;42.722;23.268;2023-04-01T19:00:02;93948.50;;;7.12;96.83
42247;BME280;27913;42.722;23.268;2023-04-01T19:02:36;93913.16;;;6.87;97.15
42247;BME280;27913;42.722;23.268;2023-04-01T19:05:17;93951.69;;;7.07;95.38
42247;BME280;27913;42.722;23.268;2023-04-01T19:07:49;93914.25;;;7.00;96.04
42247;BME280;27913;42.722;23.268;2023-04-01T19:10:27;93972.03;;;7.41;95.56
42247;BME280;27913;42.722;23.268;2023-04-01T19:16:00;93947.09;;;7.09;94.12
42247;BME280;27913;42.722;23.268;2023-04-01T19:21:11;94002.44;;;7.48;93.92
42247;BME280;27913;42.722;23.268;2023-04-01T19:28:59;93939.06;;;7.11;93.65
42247;BME280;27913;42.722;23.268;2023-04-01T19:34:26;94057.16;;;7.79;93.34
42247;BME280;27913;42.722;23.268;2023-04-01T19:37:16;93909.25;;;6.76;92.68
42247;BME280;27913;42.722;23.268;2023-04-01T19:45:51;93752.72;;;5.67;88.12
42247;BME280;27913;42.722;23.268;2023-04-01T19:54:41;94034.22;;;7.45;86.30
42247;BME280;27913;42.722;23.268;2023-04-01T20:00:05;94088.59;;;7.79;84.81
42247;BME280;27913;42.722;23.268;2023-04-01T20:02:56;94020.00;;;7.26;83.84
42247;BME280;27913;42.722;23.268;2023-04-01T20:05:33;94024.06;;;7.29;83.56
42247;BME280;27913;42.722;23.268;2023-04-01T20:08:09;94028.13;;;7.38;82.22
42247;BME280;27913;42.722;23.268;2023-04-01T20:15:59;94038.72;;;7.52;83.04
42247;BME280;27913;42.722;23.268;2023-04-01T20:18:40;94034.22;;;7.45;83.42
42247;BME280;27913;42.722;23.268;2023-04-01T20:21:18;94013.84;;;7.34;83.62
42247;BME280;27913;42.722;23.268;2023-04-01T20:23:53;94017.44;;;7.33;83.54
42247;BME280;27913;42.722;23.268;2023-04-01T20:26:25;94005.63;;;7.15;83.25
42247;BME280;27913;42.722;23.268;2023-04-01T20:32:55;93899.09;;;6.60;83.91
42247;BME280;27913;42.722;23.268;2023-04-01T20:35:25;94023.94;;;7.44;82.94
42247;BME280;27913;42.722;23.268;2023-04-01T20:40:44;93978.22;;;7.04;82.06
42247;BME280;27913;42.722;23.268;2023-04-01T20:51:25;93956.72;;;6.80;81.05
42247;BME280;27913;42.722;23.268;2023-04-01T20:56:45;94057.16;;;7.43;81.44
42247;BME280;27913;42.722;23.268;2023-04-01T20:59:45;94042.75;;;7.25;81.35
42247;BME280;27913;42.722;23.268;2023-04-01T21:07:56;94052.78;;;7.22;81.45
42247;BME280;27913;42.722;23.268;2023-04-01T21:19:26;94123.28;;;7.59;80.05
42247;BME280;27913;42.722;23.268;2023-04-01T21:22:28;94145.50;;;7.70;80.31
42247;BME280;27913;42.722;23.268;2023-04-01T21:53:18;93992.56;;;6.64;80.97
42247;BME280;27913;42.722;23.268;2023-04-01T22:09:29;94015.59;;;6.76;81.18
42247;BME280;27913;42.722;23.268;2023-04-01T22:12:12;93964.09;;;6.48;81.16
42247;BME280;27913;42.722;23.268;2023-04-01T22:17:54;94111.06;;;7.37;81.03
42247;BME280;27913;42.722;23.268;2023-04-01T22:20:40;94114.69;;;7.43;80.96
42247;BME280;27913;42.722;23.268;2023-04-01T22:23:32;94022.00;;;6.73;80.85
42247;BME280;27913;42.722;23.268;2023-04-01T22:31:28;93973.78;;;6.54;80.37
42247;BME280;27913;42.722;23.268;2023-04-01T22:42:53;94123.22;;;7.52;80.11
42247;BME280;27913;42.722;23.268;2023-04-01T22:48:26;93952.25;;;6.08;79.51
42247;BME280;27913;42.722;23.268;2023-04-01T22:56:07;93998.47;;;6.30;79.92
42247;BME280;27913;42.722;23.268;2023-04-01T22:58:38;94143.19;;;7.31;79.51